Time;durP1;ratioP1;P1;durP2;ratioP2;P2;SDS_P1;SDS_P2;PMS_P1;PMS_P2;Temp;Humidity;BMP_temperature;BMP_pressure;BME280_temperature;BME280_humidity;BME280_pressure;Samples;Min_cycle;Max_cycle;Signal;HPM_P1;HPM_P2
2021/06/09 00:02:03;;;;;;;46.92;33.20;;;14.70;99.90;;;;;;5126988;27;20321;-72
2021/06/09 00:04:29;;;;;;;44.45;32.35;;;14.60;99.90;;;;;;5127323;27;20612;-72
2021/06/09 00:06:57;;;;;;;47.08;33.05;;;14.50;99.90;;;;;;5127678;27;20294;-72
2021/06/09 00:09:23;;;;;;;68.10;34.55;;;14.60;99.90;;;;;;5127918;28;20237;-72
2021/06/09 00:11:50;;;;;;;59.40;33.83;;;14.70;99.90;;;;;;5112416;28;20213;-72
2021/06/09 00:14:16;;;;;;;50.25;32.17;;;14.60;99.90;;;;;;5126282;28;20220;-72
2021/06/09 00:16:44;;;;;;;60.47;34.47;;;14.50;99.90;;;;;;5123917;28;20207;-72
2021/06/09 00:19:11;;;;;;;53.53;33.83;;;14.50;99.90;;;;;;5125939;28;20199;-72
2021/06/09 00:21:38;;;;;;;54.20;32.00;;;14.50;99.90;;;;;;5107005;28;20210;-72
2021/06/09 00:24:07;;;;;;;150.38;41.33;;;14.40;99.90;;;;;;5106445;28;20211;-72
2021/06/09 00:26:34;;;;;;;121.82;41.38;;;14.60;99.90;;;;;;5106612;28;20214;-72
2021/06/09 00:29:00;;;;;;;65.18;38.42;;;14.60;99.90;;;;;;5107221;28;20730;-72
2021/06/09 00:31:26;;;;;;;145.20;41.40;;;14.60;99.90;;;;;;5126049;28;20241;-72
2021/06/09 00:33:53;;;;;;;141.57;39.03;;;14.60;99.90;;;;;;5126890;28;20810;-72
2021/06/09 00:36:19;;;;;;;172.93;39.67;;;14.70;99.90;;;;;;5112612;28;20219;-72
2021/06/09 00:38:45;;;;;;;189.68;42.38;;;14.70;99.90;;;;;;5113545;28;20210;-72
2021/06/09 00:41:13;;;;;;;143.60;40.08;;;14.70;99.90;;;;;;5107053;28;20249;-72
2021/06/09 00:43:40;;;;;;;94.93;36.72;;;14.70;99.90;;;;;;5106226;28;20203;-72
2021/06/09 00:46:08;;;;;;;121.15;38.78;;;14.70;99.90;;;;;;5107522;28;20586;-72
2021/06/09 00:48:37;;;;;;;111.28;40.10;;;14.70;99.90;;;;;;5127897;27;20334;-72
2021/06/09 00:51:06;;;;;;;171.52;39.33;;;14.70;99.90;;;;;;5131310;27;20297;-72
2021/06/09 00:53:34;;;;;;;74.90;37.50;;;14.80;99.90;;;;;;5117648;27;20565;-72
2021/06/09 00:56:03;;;;;;;59.58;36.05;;;14.90;99.90;;;;;;5130417;27;20194;-72
2021/06/09 00:58:31;;;;;;;86.82;37.13;;;14.90;99.90;;;;;;5131511;27;20298;-72
2021/06/09 01:00:57;;;;;;;93.70;37.03;;;14.90;99.90;;;;;;5131056;27;20199;-71
2021/06/09 01:03:24;;;;;;;82.00;36.15;;;14.90;99.90;;;;;;5130587;27;20207;-71
2021/06/09 01:05:51;;;;;;;61.28;34.70;;;14.80;99.90;;;;;;5123324;27;20298;-72
2021/06/09 01:08:17;;;;;;;202.48;45.28;;;14.90;99.90;;;;;;5118748;27;20239;-72
2021/06/09 01:10:45;;;;;;;354.65;51.15;;;15.00;99.90;;;;;;5110832;27;20243;-71
2021/06/09 01:13:12;;;;;;;170.80;45.63;;;14.90;99.90;;;;;;5110721;28;20231;-72
2021/06/09 01:15:41;;;;;;;82.40;36.03;;;14.90;99.90;;;;;;5109544;28;20290;-71
2021/06/09 01:18:08;;;;;;;125.00;43.25;;;14.90;99.90;;;;;;5109727;28;20215;-72
2021/06/09 01:20:34;;;;;;;98.50;37.42;;;15.10;99.90;;;;;;5112543;27;20314;-72
2021/06/09 01:23:03;;;;;;;338.70;43.97;;;15.10;99.90;;;;;;5110426;28;20203;-72
2021/06/09 01:25:29;;;;;;;172.45;37.58;;;15.00;99.90;;;;;;5109533;28;20831;-73
2021/06/09 01:27:56;;;;;;;186.43;35.78;;;15.00;99.90;;;;;;5118834;27;20450;-72
2021/06/09 01:30:23;;;;;;;94.40;35.40;;;15.00;99.90;;;;;;5130527;27;20206;-72
2021/06/09 01:32:50;;;;;;;133.90;35.97;;;15.00;99.90;;;;;;5130427;27;20290;-72
2021/06/09 01:35:17;;;;;;;72.03;32.40;;;14.90;99.90;;;;;;5126739;27;20199;-72
2021/06/09 01:37:44;;;;;;;62.70;32.03;;;14.80;99.90;;;;;;5116529;27;20208;-71
2021/06/09 01:40:14;;;;;;;40.80;30.95;;;14.80;99.90;;;;;;5128845;27;20199;-72
2021/06/09 01:42:42;;;;;;;53.45;32.45;;;14.90;99.90;;;;;;5121768;27;21380;-73
2021/06/09 01:45:12;;;;;;;68.20;32.65;;;15.00;99.90;;;;;;5129992;27;20203;-72
2021/06/09 01:47:38;;;;;;;54.80;33.33;;;14.90;99.90;;;;;;5130115;27;20294;-72
2021/06/09 01:50:07;;;;;;;51.72;33.55;;;14.90;99.90;;;;;;5122000;27;20203;-72
2021/06/09 01:52:33;;;;;;;61.95;33.70;;;14.90;99.90;;;;;;5109613;28;20669;-72
2021/06/09 01:55:00;;;;;;;83.20;36.60;;;14.90;99.90;;;;;;5118549;27;20249;-72
2021/06/09 01:57:29;;;;;;;90.53;34.83;;;14.80;99.90;;;;;;5110991;27;20203;-71
2021/06/09 01:59:55;;;;;;;95.88;34.28;;;14.80;99.90;;;;;;5108440;28;20207;-72
2021/06/09 02:02:21;;;;;;;78.07;32.47;;;14.70;99.90;;;;;;5121440;27;20203;-72
2021/06/09 02:04:48;;;;;;;114.70;35.50;;;14.70;99.90;;;;;;5122137;27;20290;-72
2021/06/09 02:07:14;;;;;;;108.00;36.53;;;14.60;99.90;;;;;;5123716;27;20199;-71
2021/06/09 02:09:41;;;;;;;69.68;34.95;;;14.60;99.90;;;;;;5110633;27;20314;-72
2021/06/09 02:12:09;;;;;;;73.22;36.50;;;14.70;99.90;;;;;;5110293;27;20283;-72
2021/06/09 02:14:37;;;;;;;64.57;37.78;;;14.60;99.90;;;;;;5107848;28;20239;-71
2021/06/09 02:17:05;;;;;;;55.25;34.45;;;14.70;99.90;;;;;;5108975;27;20290;-72
2021/06/09 02:19:32;;;;;;;55.05;33.65;;;14.70;99.90;;;;;;5117011;27;20286;-72
2021/06/09 02:21:59;;;;;;;51.95;32.88;;;14.60;99.90;;;;;;5107859;28;20203;-72
2021/06/09 02:24:27;;;;;;;48.70;32.42;;;14.70;99.90;;;;;;5108209;28;20208;-72
2021/06/09 02:26:55;;;;;;;51.08;33.80;;;14.80;99.90;;;;;;5108604;27;20298;-72
2021/06/09 02:29:21;;;;;;;46.58;30.85;;;14.80;99.90;;;;;;5120939;27;20245;-72
2021/06/09 02:31:51;;;;;;;45.85;31.00;;;14.80;99.90;;;;;;5127384;27;20209;-71
2021/06/09 02:34:20;;;;;;;42.75;31.17;;;14.80;99.90;;;;;;5128466;27;20245;-72
2021/06/09 02:36:49;;;;;;;42.30;30.17;;;14.80;99.90;;;;;;5128206;27;20221;-71
2021/06/09 02:39:18;;;;;;;41.33;30.25;;;14.80;99.90;;;;;;5128547;27;20201;-72
2021/06/09 02:41:44;;;;;;;39.78;30.40;;;14.80;99.90;;;;;;5127210;27;20203;-72
2021/06/09 02:44:11;;;;;;;47.55;31.77;;;14.80;99.90;;;;;;5128736;27;20259;-72
2021/06/09 02:46:40;;;;;;;40.60;30.27;;;14.90;99.90;;;;;;5124674;27;20252;-72
2021/06/09 02:49:12;;;;;;;43.17;29.38;;;15.00;99.90;;;;;;5126505;27;20231;-72
2021/06/09 02:51:42;;;;;;;37.38;29.80;;;15.10;99.90;;;;;;5120164;27;20661;-72
2021/06/09 02:54:19;;;;;;;93.95;28.50;;;15.20;99.90;;;;;;5127384;27;20210;-73
2021/06/09 02:56:54;;;;;;;28.58;23.10;;;14.90;99.90;;;;;;5128578;27;20844;-72
2021/06/09 02:59:32;;;;;;;26.95;24.13;;;14.80;99.90;;;;;;5126206;27;20204;-72
2021/06/09 03:02:05;;;;;;;30.15;25.73;;;14.80;99.90;;;;;;5128471;27;20237;-72
2021/06/09 03:04:43;;;;;;;36.70;27.27;;;14.90;99.90;;;;;;5127765;27;20854;-72
2021/06/09 03:07:16;;;;;;;38.40;28.92;;;15.00;99.90;;;;;;5129125;27;20206;-72
2021/06/09 03:09:53;;;;;;;35.05;26.73;;;14.90;99.90;;;;;;5128270;27;20230;-72
2021/06/09 03:12:27;;;;;;;33.05;26.90;;;15.00;99.90;;;;;;5128171;27;20274;-72
2021/06/09 03:15:12;;;;;;;38.40;27.60;;;15.00;99.90;;;;;;5108130;27;20199;-72
2021/06/09 03:17:47;;;;;;;30.90;25.05;;;14.90;99.90;;;;;;5107418;28;20214;-71
2021/06/09 03:20:22;;;;;;;46.65;24.77;;;14.90;99.90;;;;;;5119064;27;20263;-71
2021/06/09 03:22:57;;;;;;;40.15;26.85;;;14.90;99.90;;;;;;5128119;27;20190;-72
2021/06/09 03:25:30;;;;;;;29.60;24.30;;;14.80;99.90;;;;;;5127483;27;20198;-72
2021/06/09 03:28:01;;;;;;;34.17;26.83;;;14.80;99.90;;;;;;5117200;27;20543;-72
2021/06/09 03:30:30;;;;;;;37.10;23.38;;;14.90;99.90;;;;;;5107726;28;20572;-72
2021/06/09 03:33:02;;;;;;;60.55;23.58;;;14.90;99.90;;;;;;5107452;28;20290;-72
2021/06/09 03:35:36;;;;;;;47.58;23.92;;;14.90;99.90;;;;;;5106716;28;20203;-72
2021/06/09 03:38:05;;;;;;;49.03;25.48;;;14.70;99.90;;;;;;5125004;27;21001;-71
2021/06/09 03:40:36;;;;;;;30.20;24.25;;;14.80;99.90;;;;;;5122655;27;20306;-72
2021/06/09 03:43:05;;;;;;;55.70;24.13;;;14.70;99.90;;;;;;5108725;27;20671;-72
2021/06/09 03:45:34;;;;;;;92.15;26.67;;;14.70;99.90;;;;;;5109138;27;20273;-72
2021/06/09 03:48:02;;;;;;;156.80;28.05;;;14.70;99.90;;;;;;5107123;28;20227;-73
2021/06/09 03:50:31;;;;;;;98.15;27.48;;;14.80;99.90;;;;;;5107632;28;20663;-71
2021/06/09 03:53:03;;;;;;;205.23;32.03;;;14.60;99.90;;;;;;5107879;28;20230;-71
2021/06/09 03:55:32;;;;;;;121.20;28.88;;;14.70;99.90;;;;;;5106715;28;20199;-71
2021/06/09 03:58:01;;;;;;;56.53;25.25;;;14.60;99.90;;;;;;5107111;28;20857;-72
2021/06/09 04:00:28;;;;;;;112.93;29.90;;;14.70;99.90;;;;;;5111064;27;20719;-71
2021/06/09 04:02:55;;;;;;;126.47;30.88;;;14.80;99.90;;;;;;5127552;27;20207;-71
2021/06/09 04:05:24;;;;;;;122.85;31.20;;;14.80;99.90;;;;;;5127231;27;20661;-71
2021/06/09 04:07:54;;;;;;;129.75;29.83;;;14.70;99.90;;;;;;5127521;27;20295;-71
2021/06/09 04:10:21;;;;;;;138.25;32.17;;;14.70;99.90;;;;;;5127268;28;20305;-71
2021/06/09 04:12:48;;;;;;;198.15;34.92;;;14.80;99.90;;;;;;5123286;28;21027;-71
2021/06/09 04:15:17;;;;;;;136.02;33.42;;;14.80;99.90;;;;;;5106164;28;20207;-72
2021/06/09 04:17:45;;;;;;;120.55;30.70;;;14.70;99.90;;;;;;5113637;28;20293;-72
2021/06/09 04:20:12;;;;;;;57.90;29.35;;;14.90;99.90;;;;;;5127454;28;20788;-71
2021/06/09 04:22:39;;;;;;;50.17;28.13;;;14.90;99.90;;;;;;5127166;27;20226;-71
2021/06/09 04:25:09;;;;;;;69.72;26.40;;;15.10;99.90;;;;;;5122663;27;20298;-71
2021/06/09 04:27:39;;;;;;;48.58;26.38;;;15.00;99.90;;;;;;5117629;27;20208;-72
2021/06/09 04:30:07;;;;;;;53.50;27.77;;;15.00;99.90;;;;;;5131797;27;20234;-72
2021/06/09 04:32:51;;;;;;;46.08;25.10;;;15.00;99.90;;;;;;5131538;27;20290;-71
2021/06/09 04:35:17;;;;;;;41.78;27.58;;;15.00;99.90;;;;;;5130607;27;20198;-71
2021/06/09 04:37:44;;;;;;;44.10;25.98;;;15.20;99.90;;;;;;5131389;27;20209;-72
2021/06/09 04:40:18;;;;;;;38.45;25.75;;;15.30;99.90;;;;;;5128766;27;20660;-71
2021/06/09 04:42:46;;;;;;;29.17;25.23;;;15.30;99.90;;;;;;5122550;27;20233;-71
2021/06/09 04:45:13;;;;;;;30.98;26.23;;;15.40;99.90;;;;;;5130064;27;20251;-72
2021/06/09 04:47:39;;;;;;;31.40;24.60;;;15.60;99.90;;;;;;5130948;27;20294;-72
2021/06/09 04:50:07;;;;;;;37.00;24.58;;;15.60;99.90;;;;;;5131290;27;20234;-72
2021/06/09 04:52:33;;;;;;;32.15;25.77;;;15.60;99.90;;;;;;5131249;27;20313;-71
2021/06/09 04:55:00;;;;;;;30.63;25.60;;;15.60;99.90;;;;;;5116987;27;20400;-71
2021/06/09 04:57:27;;;;;;;28.85;25.13;;;15.70;99.90;;;;;;5110142;28;20196;-71
2021/06/09 04:59:54;;;;;;;30.95;24.88;;;15.70;99.90;;;;;;5110783;28;20886;-72
2021/06/09 05:02:20;;;;;;;316.30;37.65;;;15.70;99.90;;;;;;5129906;27;20289;-72
2021/06/09 05:04:47;;;;;;;59.40;26.08;;;15.70;99.90;;;;;;5130152;27;20211;-71
2021/06/09 05:07:14;;;;;;;177.02;26.80;;;15.70;99.90;;;;;;5130769;27;20210;-72
2021/06/09 05:09:40;;;;;;;62.45;24.75;;;15.50;99.90;;;;;;5128847;27;20235;-71
2021/06/09 05:12:16;;;;;;;39.97;23.95;;;15.40;99.90;;;;;;5129913;27;20195;-72
2021/06/09 05:14:48;;;;;;;34.88;24.00;;;15.60;99.90;;;;;;5111453;27;20200;-71
2021/06/09 05:17:18;;;;;;;30.40;24.40;;;15.60;99.90;;;;;;5110027;28;20212;-72
2021/06/09 05:19:48;;;;;;;28.70;25.58;;;15.60;99.90;;;;;;5125688;27;20213;-72
2021/06/09 05:22:20;;;;;;;48.92;26.85;;;15.80;99.90;;;;;;5130876;27;20203;-72
2021/06/09 05:24:48;;;;;;;32.28;26.20;;;15.90;99.90;;;;;;5123364;27;20295;-72
2021/06/09 05:27:19;;;;;;;30.90;26.05;;;15.90;99.90;;;;;;5130199;27;20297;-71
2021/06/09 05:29:47;;;;;;;28.10;24.98;;;16.10;99.90;;;;;;5129995;27;20231;-72
2021/06/09 05:32:15;;;;;;;31.98;26.85;;;16.10;99.90;;;;;;5117595;27;20227;-72
2021/06/09 05:34:42;;;;;;;29.73;25.92;;;16.30;99.90;;;;;;5125765;27;20286;-72
2021/06/09 05:37:10;;;;;;;28.35;25.33;;;16.40;99.90;;;;;;5125523;27;20196;-72
2021/06/09 05:39:38;;;;;;;28.63;25.58;;;16.40;99.90;;;;;;5123469;27;20198;-72
2021/06/09 05:42:09;;;;;;;26.15;23.38;;;16.50;99.90;;;;;;5128914;27;20195;-70
2021/06/09 05:44:36;;;;;;;27.45;24.10;;;16.60;99.90;;;;;;5108859;28;20673;-69
2021/06/09 05:47:04;;;;;;;28.80;25.70;;;16.80;99.90;;;;;;5127110;27;20290;-69
2021/06/09 05:49:31;;;;;;;26.77;23.98;;;16.70;99.90;;;;;;5130142;27;20230;-69
2021/06/09 05:51:57;;;;;;;27.23;24.33;;;16.80;99.90;;;;;;5130097;27;20223;-70
2021/06/09 05:54:24;;;;;;;26.90;24.15;;;16.90;99.90;;;;;;5128977;27;20203;-71
2021/06/09 05:56:51;;;;;;;28.90;22.45;;;17.00;99.90;;;;;;5129393;27;20302;-69
2021/06/09 05:59:17;;;;;;;35.35;22.90;;;17.20;99.90;;;;;;5128770;27;20294;-68
2021/06/09 06:01:44;;;;;;;27.58;21.30;;;16.90;99.90;;;;;;5129363;27;20278;-69
2021/06/09 06:04:14;;;;;;;79.95;22.98;;;16.80;99.90;;;;;;5129001;27;20213;-69
2021/06/09 06:06:41;;;;;;;32.85;22.40;;;16.70;99.90;;;;;;5129058;27;20406;-69
2021/06/09 06:09:08;;;;;;;56.67;24.13;;;16.70;99.90;;;;;;5128707;27;20645;-69
2021/06/09 06:11:35;;;;;;;36.05;25.02;;;16.80;99.90;;;;;;5129924;27;20917;-69
2021/06/09 06:14:05;;;;;;;33.80;23.10;;;17.00;99.90;;;;;;5128707;27;20671;-69
2021/06/09 06:16:32;;;;;;;27.00;23.05;;;17.20;99.90;;;;;;5123639;27;20230;-68
2021/06/09 06:18:58;;;;;;;58.00;24.23;;;17.10;99.90;;;;;;5125829;27;20214;-69
2021/06/09 06:21:26;;;;;;;52.10;24.67;;;17.00;99.90;;;;;;5129405;27;20298;-69
2021/06/09 06:23:54;;;;;;;43.55;27.58;;;16.90;99.90;;;;;;5128974;27;20297;-69
2021/06/09 06:26:21;;;;;;;38.97;26.25;;;16.90;99.90;;;;;;5128597;27;20734;-69
2021/06/09 06:28:49;;;;;;;35.30;26.15;;;17.00;99.90;;;;;;5128920;27;20672;-69
2021/06/09 06:31:19;;;;;;;34.95;25.17;;;17.00;99.90;;;;;;5126211;27;20281;-70
2021/06/09 06:33:47;;;;;;;31.17;26.63;;;17.00;99.90;;;;;;5120148;27;20290;-69
2021/06/09 06:36:17;;;;;;;34.53;24.90;;;17.20;99.90;;;;;;5128874;27;20221;-69
2021/06/09 06:38:45;;;;;;;28.95;25.52;;;17.30;99.90;;;;;;5127982;27;20202;-69
2021/06/09 06:41:11;;;;;;;30.30;26.13;;;17.30;99.90;;;;;;5129072;27;20206;-69
2021/06/09 06:43:39;;;;;;;31.00;25.30;;;17.60;99.90;;;;;;5129031;27;20203;-69
2021/06/09 06:46:07;;;;;;;27.45;24.63;;;17.80;99.90;;;;;;5127385;27;20231;-69
2021/06/09 06:48:34;;;;;;;25.83;23.03;;;17.90;99.90;;;;;;5128107;27;20691;-69
2021/06/09 06:51:01;;;;;;;27.23;24.50;;;18.20;99.90;;;;;;5128942;27;20644;-69
2021/06/09 06:53:28;;;;;;;27.00;24.07;;;18.50;99.90;;;;;;5128643;27;20646;-69
2021/06/09 06:55:58;;;;;;;25.97;22.60;;;18.60;99.90;;;;;;5127408;27;20667;-69
2021/06/09 06:58:26;;;;;;;25.00;22.50;;;19.00;99.90;;;;;;5128447;27;20787;-69
2021/06/09 07:00:53;;;;;;;25.73;22.97;;;19.40;99.90;;;;;;5128637;27;20632;-69
2021/06/09 07:03:22;;;;;;;26.60;23.80;;;19.50;99.90;;;;;;5123638;27;20683;-69
2021/06/09 07:05:49;;;;;;;25.70;23.07;;;19.70;99.90;;;;;;5117926;27;20689;-69
2021/06/09 07:08:16;;;;;;;23.90;21.50;;;20.00;99.90;;;;;;5122293;27;21196;-69
2021/06/09 07:10:43;;;;;;;24.63;22.33;;;20.20;99.90;;;;;;5128243;27;20877;-69
2021/06/09 07:13:11;;;;;;;25.00;22.40;;;20.60;99.90;;;;;;5128555;27;20689;-70
2021/06/09 07:15:39;;;;;;;25.03;22.70;;;20.70;99.90;;;;;;5127767;27;21189;-69
2021/06/09 07:18:07;;;;;;;25.30;22.90;;;20.70;99.90;;;;;;5127620;27;21023;-69
2021/06/09 07:20:34;;;;;;;26.10;23.67;;;20.70;99.90;;;;;;5128712;27;21195;-69
2021/06/09 07:23:00;;;;;;;26.60;24.00;;;21.20;99.90;;;;;;5128630;27;20628;-70
2021/06/09 07:25:31;;;;;;;25.80;23.20;;;21.10;99.90;;;;;;5127658;27;20717;-69
2021/06/09 07:28:02;;;;;;;23.97;21.70;;;21.20;99.90;;;;;;5128812;27;20742;-70
2021/06/09 07:30:32;;;;;;;24.70;22.33;;;21.20;99.90;;;;;;5128107;27;20768;-69
2021/06/09 07:33:01;;;;;;;25.87;23.20;;;21.20;99.90;;;;;;5122499;27;20619;-69
2021/06/09 07:35:27;;;;;;;25.97;23.50;;;21.30;99.90;;;;;;5123006;27;20727;-69
2021/06/09 07:37:59;;;;;;;25.87;23.17;;;21.20;99.90;;;;;;5127466;27;21168;-69
2021/06/09 07:40:28;;;;;;;24.40;22.10;;;21.50;99.90;;;;;;5128580;27;21036;-70
2021/06/09 07:43:00;;;;;;;23.87;21.70;;;21.70;99.90;;;;;;5127495;27;20632;-69
2021/06/09 07:45:27;;;;;;;25.30;22.83;;;21.80;99.90;;;;;;5127892;27;20732;-69
2021/06/09 07:47:57;;;;;;;24.37;22.17;;;21.40;99.90;;;;;;5127749;27;20626;-69
2021/06/09 07:50:27;;;;;;;23.43;21.13;;;21.40;99.90;;;;;;5106296;28;20695;-69
2021/06/09 07:52:55;;;;;;;24.87;22.20;;;21.50;99.90;;;;;;5107683;28;21229;-69
2021/06/09 07:55:22;;;;;;;23.23;20.93;;;21.20;99.90;;;;;;5106766;28;20633;-69
2021/06/09 07:57:49;;;;;;;24.30;22.00;;;21.20;99.90;;;;;;5106592;28;21218;-69
2021/06/09 08:00:17;;;;;;;25.50;23.10;;;21.40;99.90;;;;;;5126961;27;20638;-68
2021/06/09 08:02:44;;;;;;;25.20;22.70;;;21.40;99.90;;;;;;5127387;27;20624;-69
2021/06/09 08:05:14;;;;;;;25.07;22.53;;;21.30;99.90;;;;;;5126646;27;20680;-68
2021/06/09 08:07:41;;;;;;;24.43;21.83;;;21.50;99.90;;;;;;5127784;27;21169;-68
2021/06/09 08:10:09;;;;;;;24.93;22.43;;;21.80;99.90;;;;;;5127077;27;20671;-68
2021/06/09 08:12:37;;;;;;;25.73;23.33;;;22.30;99.90;;;;;;5127893;27;20626;-68
2021/06/09 08:15:06;;;;;;;23.77;21.57;;;22.40;99.90;;;;;;5125033;28;20608;-68
2021/06/09 08:17:33;;;;;;;24.30;22.10;;;23.10;99.90;;;;;;5105877;28;20644;-69
2021/06/09 08:19:59;;;;;;;23.97;21.83;;;23.40;99.90;;;;;;5088044;28;20618;-69
2021/06/09 08:22:27;;;;;;;25.83;23.23;;;23.70;99.90;;;;;;5106861;28;20726;-69
2021/06/09 08:24:53;;;;;;;23.07;21.07;;;23.90;99.90;;;;;;5105739;28;20731;-69
2021/06/09 08:27:20;;;;;;;23.50;21.40;;;24.20;99.90;;;;;;5106175;28;20591;-69
2021/06/09 08:29:46;;;;;;;23.70;21.67;;;24.10;99.90;;;;;;5107404;28;20672;-68
2021/06/09 08:32:12;;;;;;;24.70;22.40;;;24.20;99.90;;;;;;5109556;28;20698;-68
2021/06/09 08:34:39;;;;;;;24.63;22.43;;;23.60;99.90;;;;;;5126501;28;20692;-68
2021/06/09 08:37:05;;;;;;;24.63;22.47;;;23.20;99.90;;;;;;5126944;28;21255;-68
2021/06/09 08:39:33;;;;;;;25.00;22.70;;;23.00;99.90;;;;;;5127699;28;20620;-68
2021/06/09 08:42:02;;;;;;;23.80;21.60;;;23.00;99.90;;;;;;5123593;28;20649;-68
2021/06/09 08:44:29;;;;;;;25.87;23.33;;;24.10;99.90;;;;;;5123234;28;20718;-68
2021/06/09 08:46:58;;;;;;;24.67;22.47;;;25.40;99.00;;;;;;5127162;28;20643;-68
2021/06/09 08:49:25;;;;;;;23.73;21.50;;;26.20;96.80;;;;;;5125622;28;20671;-69
2021/06/09 08:51:53;;;;;;;25.57;23.17;;;27.40;94.60;;;;;;5125911;28;20673;-68
2021/06/09 08:54:19;;;;;;;22.40;20.40;;;27.80;94.20;;;;;;5105474;28;20625;-69
2021/06/09 08:56:50;;;;;;;23.63;21.63;;;28.70;92.00;;;;;;5106329;28;21052;-69
2021/06/09 08:59:16;;;;;;;24.97;22.87;;;29.50;90.40;;;;;;5106806;28;20617;-69
2021/06/09 09:01:43;;;;;;;23.37;21.20;;;29.20;90.00;;;;;;5109657;28;20720;-67
2021/06/09 09:04:12;;;;;;;23.43;21.20;;;29.10;90.10;;;;;;5115196;28;20621;-68
2021/06/09 09:06:39;;;;;;;22.17;20.40;;;29.00;91.30;;;;;;5113074;28;20651;-69
2021/06/09 09:09:06;;;;;;;23.73;21.73;;;29.30;90.40;;;;;;5126421;27;20700;-68
2021/06/09 09:11:32;;;;;;;25.30;23.30;;;29.00;90.70;;;;;;5131339;27;20608;-69
2021/06/09 09:14:00;;;;;;;24.57;22.57;;;29.40;86.50;;;;;;5128581;27;20617;-69
2021/06/09 09:16:27;;;;;;;22.17;20.40;;;30.30;88.20;;;;;;5109961;28;20632;-69
2021/06/09 09:18:59;;;;;;;24.10;22.17;;;30.30;87.60;;;;;;5109790;28;20664;-68
2021/06/09 09:21:39;;;;;;;25.03;23.00;;;31.00;84.30;;;;;;5110309;28;20614;-68
2021/06/09 09:24:09;;;;;;;22.63;20.77;;;30.70;83.50;;;;;;5120097;27;20630;-68
2021/06/09 09:26:36;;;;;;;26.67;24.37;;;29.50;86.70;;;;;;5130792;27;20705;-68
2021/06/09 09:29:15;;;;;;;26.20;24.00;;;28.40;88.70;;;;;;5130835;27;20623;-67
2021/06/09 09:31:53;;;;;;;26.47;24.17;;;27.50;90.50;;;;;;5130714;27;20730;-67
2021/06/09 09:34:34;;;;;;;26.90;24.40;;;26.30;93.10;;;;;;5130507;27;21302;-68
2021/06/09 09:37:05;;;;;;;27.30;24.97;;;25.90;93.80;;;;;;5130509;27;20719;-67
2021/06/09 09:39:34;;;;;;;27.30;23.50;;;26.20;93.20;;;;;;5130508;27;20772;-67
2021/06/09 09:42:19;;;;;;;24.80;22.50;;;26.40;93.10;;;;;;5129742;27;20689;-67
2021/06/09 09:44:48;;;;;;;24.80;22.80;;;27.00;93.20;;;;;;5130311;27;20837;-67
2021/06/09 09:47:15;;;;;;;24.00;21.77;;;27.60;92.50;;;;;;5130356;27;21251;-68
2021/06/09 09:49:42;;;;;;;27.40;25.00;;;28.20;91.20;;;;;;5129901;27;20637;-68
2021/06/09 09:52:09;;;;;;;26.70;24.33;;;27.50;91.30;;;;;;5130129;27;20622;-67
2021/06/09 09:54:37;;;;;;;27.10;24.80;;;27.30;91.20;;;;;;5129851;27;21594;-67
2021/06/09 09:57:07;;;;;;;26.97;24.57;;;27.30;91.50;;;;;;5129672;27;20621;-67
2021/06/09 09:59:34;;;;;;;27.10;24.80;;;26.80;92.30;;;;;;5109666;28;20721;-67
2021/06/09 10:02:04;;;;;;;26.47;24.10;;;26.90;92.90;;;;;;5109888;28;21042;-67
2021/06/09 10:04:34;;;;;;;26.30;23.97;;;26.30;93.20;;;;;;5109032;28;20691;-68
2021/06/09 10:07:01;;;;;;;27.40;24.90;;;26.30;94.20;;;;;;5109465;28;20621;-67
2021/06/09 10:09:29;;;;;;;28.30;25.70;;;26.20;94.10;;;;;;5109047;28;20653;-67
2021/06/09 10:11:57;;;;;;;23.63;21.53;;;26.50;93.70;;;;;;5108952;28;20693;-67
2021/06/09 10:14:25;;;;;;;27.53;25.20;;;26.50;94.00;;;;;;5112902;27;20743;-67
2021/06/09 10:16:59;;;;;;;27.40;25.03;;;27.10;92.10;;;;;;5129413;27;20659;-67
2021/06/09 10:19:31;;;;;;;25.27;23.00;;;27.10;92.60;;;;;;5129762;27;21176;-67
2021/06/09 10:22:03;;;;;;;27.20;24.67;;;27.50;92.90;;;;;;5129264;27;20628;-67
2021/06/09 10:24:30;;;;;;;25.47;23.27;;;27.90;91.60;;;;;;5129805;27;20722;-67
2021/06/09 10:27:02;;;;;;;27.70;25.40;;;27.90;92.10;;;;;;5129785;27;20662;-67
2021/06/09 10:29:30;;;;;;;25.40;23.23;;;27.90;90.70;;;;;;5130038;27;20621;-67
2021/06/09 10:31:58;;;;;;;26.77;24.57;;;27.80;91.70;;;;;;5127313;27;20639;-68
2021/06/09 10:34:27;;;;;;;25.40;23.20;;;27.50;91.70;;;;;;5119820;27;21003;-67
2021/06/09 10:36:57;;;;;;;25.07;22.80;;;27.60;92.10;;;;;;5112987;27;20641;-67
2021/06/09 10:39:27;;;;;;;28.50;25.90;;;27.90;92.00;;;;;;5117123;27;20676;-67
2021/06/09 10:41:56;;;;;;;25.50;23.30;;;27.30;92.10;;;;;;5120206;27;20653;-67
2021/06/09 10:44:24;;;;;;;25.70;23.43;;;27.00;92.30;;;;;;5124103;27;20631;-66
2021/06/09 10:46:53;;;;;;;28.80;26.10;;;26.80;92.90;;;;;;5123122;27;20624;-67
2021/06/09 10:49:21;;;;;;;28.00;25.50;;;26.50;93.90;;;;;;5124257;27;20639;-67
2021/06/09 10:51:49;;;;;;;27.80;25.30;;;26.50;93.10;;;;;;5127622;27;20682;-67
2021/06/09 10:54:20;;;;;;;28.93;26.43;;;25.90;94.00;;;;;;5121996;27;21188;-67
2021/06/09 10:56:48;;;;;;;27.27;24.77;;;25.50;94.30;;;;;;5127936;27;20989;-67
2021/06/09 10:59:16;;;;;;;25.50;23.20;;;25.40;94.80;;;;;;5127678;27;20689;-66
2021/06/09 11:01:43;;;;;;;27.80;25.30;;;25.90;95.10;;;;;;5120246;27;20707;-67
2021/06/09 11:04:11;;;;;;;25.50;23.17;;;25.90;94.60;;;;;;5121518;27;20630;-68
2021/06/09 11:06:42;;;;;;;24.67;22.47;;;26.20;94.70;;;;;;5127408;27;20720;-67
2021/06/09 11:09:24;;;;;;;25.80;23.50;;;26.50;94.50;;;;;;5127150;27;20752;-67
2021/06/09 11:12:17;;;;;;;25.13;22.83;;;26.50;94.20;;;;;;5127677;27;20620;-67
2021/06/09 11:14:46;;;;;;;22.60;20.70;;;26.10;94.00;;;;;;5122018;27;20605;-66
2021/06/09 11:17:12;;;;;;;26.13;23.70;;;26.50;95.60;;;;;;5127608;27;20682;-66
2021/06/09 11:19:41;;;;;;;23.27;21.27;;;26.80;94.10;;;;;;5124992;27;20729;-67
2021/06/09 11:22:19;;;;;;;24.30;22.00;;;26.90;94.20;;;;;;5120231;27;20597;-66
2021/06/09 11:25:14;;;;;;;24.10;21.80;;;27.00;93.00;;;;;;5127397;27;20673;-67
2021/06/09 11:27:51;;;;;;;23.50;21.50;;;27.30;92.80;;;;;;5118457;27;20694;-67
2021/06/09 11:31:00;;;;;;;19.37;17.77;;;27.70;92.70;;;;;;5121092;27;20629;-67
2021/06/09 11:33:40;;;;;;;20.80;19.20;;;28.00;93.00;;;;;;5114286;27;20688;-67
2021/06/09 11:36:08;;;;;;;18.63;17.03;;;27.90;91.60;;;;;;5120913;27;20635;-66
2021/06/09 11:38:39;;;;;;;17.40;16.20;;;28.10;90.70;;;;;;5120363;27;20641;-67
2021/06/09 11:41:09;;;;;;;19.30;17.70;;;28.10;91.20;;;;;;5127183;27;20625;-67
2021/06/09 11:43:38;;;;;;;18.83;17.37;;;28.10;90.60;;;;;;5121472;27;20730;-67
2021/06/09 11:46:07;;;;;;;18.70;17.30;;;28.00;87.80;;;;;;5123177;27;20635;-67
2021/06/09 11:48:35;;;;;;;17.77;16.37;;;27.80;84.30;;;;;;5124674;27;20639;-66
2021/06/09 11:51:22;;;;;;;18.20;16.70;;;27.20;85.90;;;;;;5126025;27;20767;-67
2021/06/09 11:53:50;;;;;;;17.23;15.73;;;27.20;89.00;;;;;;5116710;27;20632;-67
2021/06/09 11:56:21;;;;;;;17.17;15.87;;;27.70;88.20;;;;;;5122780;27;21398;-67
2021/06/09 11:58:50;;;;;;;17.47;16.13;;;28.00;90.60;;;;;;5118754;27;21261;-67
2021/06/09 12:01:21;;;;;;;15.73;14.57;;;28.10;88.80;;;;;;5125741;27;20720;-67
2021/06/09 12:04:13;;;;;;;14.30;13.30;;;27.90;83.50;;;;;;5123448;27;20625;-68
2021/06/09 12:06:51;;;;;;;14.20;13.13;;;27.80;84.10;;;;;;5119950;27;20618;-67
2021/06/09 12:09:24;;;;;;;15.53;14.13;;;27.80;80.70;;;;;;5121091;27;20991;-66
2021/06/09 12:11:56;;;;;;;15.63;14.33;;;27.80;83.10;;;;;;5124013;27;20617;-67
2021/06/09 12:14:25;;;;;;;15.70;14.47;;;27.60;82.90;;;;;;5118564;28;20632;-67
2021/06/09 12:16:55;;;;;;;17.60;16.27;;;27.40;83.90;;;;;;5124425;28;20727;-67
2021/06/09 12:19:29;;;;;;;16.43;15.10;;;26.90;82.80;;;;;;5119804;28;21323;-66
2021/06/09 12:21:59;;;;;;;15.90;14.60;;;26.50;86.30;;;;;;5125240;28;20715;-67
2021/06/09 12:24:25;;;;;;;15.27;14.17;;;26.90;83.80;;;;;;5126790;28;20723;-67
2021/06/09 12:26:59;;;;;;;16.60;15.30;;;27.10;84.10;;;;;;5122005;28;21244;-67
2021/06/09 12:29:28;;;;;;;16.00;14.67;;;27.10;83.20;;;;;;5126817;28;20674;-67
2021/06/09 12:31:55;;;;;;;15.70;14.40;;;26.90;84.40;;;;;;5122620;28;20629;-67
2021/06/09 12:34:24;;;;;;;16.53;15.20;;;27.20;85.10;;;;;;5122194;28;20625;-67
2021/06/09 12:37:01;;;;;;;15.70;14.40;;;27.70;84.00;;;;;;5123241;28;20731;-67